Airfield :
LOGIN :

Register | Disclaimer

   EN    FR    IT 

 










Legend :    VFR   Marginal VFR   IFR   Intensive IFR   Very Intensive IFR
Visi :
Ceiling :
>= 8 km
>= 3000ft
5 to 8 km
1000 to 3000 ft
1500m to 5 km
500 to 1000 ft
800 to 1500m
200 to 500 ft
< 800m
< 200 ft
Symbols :   Thunderstorms  Fog  Heavy snow  Heavy precipitations  Wind > 20 kt
SIGMETs :     Misc.  Thunderstorms  Icing  Turbulence  Mountain Waves  Volcanic Ashes







- Airport Elevation : 796 ft
- IATA code : SYT
- Download approach charts


LFLN - Saint-Yan

CURRENT METAR :
  • 301400Z AUTO 10005KT 050V150 CAVOK 23/11 Q1021 NOSIG

EXPIRED METARs :
  • 301330Z AUTO 09005KT 040V150 CAVOK 22/10 Q1022 NOSIG
  • 301300Z AUTO 10003KT 040V180 9999 NSC 22/09 Q1022 NOSIG
  • 301230Z AUTO 06003KT 020V110 9999 NSC 21/09 Q1023 NOSIG
  • 301200Z AUTO VRB03KT 9999 NSC 21/10 Q1023 NOSIG
  • 301130Z AUTO 13003KT 040V190 9999 NSC 20/09 Q1024 NOSIG

TAF TAF LFLN
Valid from the 30 at 12:00 until the 30 at 21:00 UTC


301100Z 3012/3021 10006KT CAVOK
No reported NOTAMs for that airfield.



MET'MAP, your aeronautical weather chart ! - Copyright ORBIFLY December 2007 - Disclaimer

ORBIFLY MET'MAP TEAM :

Programming & Development : Alexandra Zaïnal
Concept & Development : Baudouin d'Aumeries
Co-Development & Prog : Marc-Olivier Méhu
Technical & hardware support : Manuel Goepfert

Contact : metmap@orbifly.com




SOURCES & CREDITS :

   NOAA